Airfield :
LOGIN :

Register | Disclaimer

   EN    FR    IT 

 










Legend :    VFR   Marginal VFR   IFR   Intensive IFR   Very Intensive IFR
Visi :
Ceiling :
>= 8 km
>= 3000ft
5 to 8 km
1000 to 3000 ft
1500m to 5 km
500 to 1000 ft
800 to 1500m
200 to 500 ft
< 800m
< 200 ft
Symbols :   Thunderstorms  Fog  Heavy snow  Heavy precipitations  Wind > 20 kt
SIGMETs :     Misc.  Thunderstorms  Icing  Turbulence  Mountain Waves  Volcanic Ashes






- Airport Elevation : 16 ft
- IATA code : EAS


LESO - San Sebastian Fuenterrabia

CURRENT METAR :
  • 101830Z 24005KT 200V310 CAVOK 19/09 Q1009

EXPIRED METARs :
  • 101800Z 23006KT 180V260 CAVOK 20/09 Q1009
  • 101730Z 21007KT 180V260 CAVOK 21/09 Q1008
  • 101700Z 20008KT 170V250 CAVOK 22/09 Q1008
  • 101630Z 19009KT 160V220 CAVOK 21/09 Q1008
  • 101600Z VRB04KT CAVOK 21/09 Q1008

TAF TAF LESO
Valid from the 10 at 18:00 until the 11 at 18:00 UTC


101700Z 1018/1118 24007KT 9999 FEW010 BKN020 TX18/1018Z TN10/1109Z
PROB30
TEMPO 1018/1021 3000 TS FEW035CB
TEMPO 1021/1110 3000 RA BKN010
PROB30
TEMPO 1021/1107 1500 RA BKN005
BECMG 1104/1108 36010KT



MET'MAP, your aeronautical weather chart ! - Copyright ORBIFLY December 2007 - Disclaimer

ORBIFLY MET'MAP TEAM :

Programming & Development : Alexandra Zaïnal
Concept & original design : Baudouin d'Aumeries
Assistance for programming : Marc-Olivier Méhu
Technical & hardware support : Manuel Goepfert

Contact : metmap@orbifly.com




SOURCES & CREDITS :

   NOAA